sensor_id;sensor_type;location;lat;lon;timestamp;P1;durP1;ratioP1;P2;durP2;ratioP2
75050;SDS011;63628;47.656;11.310;2024-01-07T00:00:54;6.67;;;4.27;;
75050;SDS011;63628;47.656;11.310;2024-01-07T00:03:20;7.00;;;4.37;;
75050;SDS011;63628;47.656;11.310;2024-01-07T00:05:47;6.33;;;4.30;;
75050;SDS011;63628;47.656;11.310;2024-01-07T00:08:14;8.03;;;4.20;;
75050;SDS011;63628;47.656;11.310;2024-01-07T00:10:41;5.87;;;4.30;;
75050;SDS011;63628;47.656;11.310;2024-01-07T00:13:07;6.13;;;4.40;;
75050;SDS011;63628;47.656;11.310;2024-01-07T00:15:34;4.67;;;3.60;;
75050;SDS011;63628;47.656;11.310;2024-01-07T00:18:02;6.47;;;4.67;;
75050;SDS011;63628;47.656;11.310;2024-01-07T00:20:29;4.83;;;3.93;;
75050;SDS011;63628;47.656;11.310;2024-01-07T00:22:56;6.23;;;4.03;;
75050;SDS011;63628;47.656;11.310;2024-01-07T00:25:22;6.10;;;4.37;;
75050;SDS011;63628;47.656;11.310;2024-01-07T00:27:49;5.97;;;4.30;;
75050;SDS011;63628;47.656;11.310;2024-01-07T00:30:17;5.13;;;3.57;;
75050;SDS011;63628;47.656;11.310;2024-01-07T00:32:45;5.80;;;3.83;;
75050;SDS011;63628;47.656;11.310;2024-01-07T00:35:13;5.47;;;4.10;;
75050;SDS011;63628;47.656;11.310;2024-01-07T00:37:40;4.87;;;3.90;;
75050;SDS011;63628;47.656;11.310;2024-01-07T00:40:07;6.77;;;4.47;;
75050;SDS011;63628;47.656;11.310;2024-01-07T00:42:35;7.00;;;4.00;;
75050;SDS011;63628;47.656;11.310;2024-01-07T00:45:02;5.57;;;3.97;;
75050;SDS011;63628;47.656;11.310;2024-01-07T00:47:29;5.77;;;4.20;;
75050;SDS011;63628;47.656;11.310;2024-01-07T00:49:56;5.13;;;3.60;;
75050;SDS011;63628;47.656;11.310;2024-01-07T00:52:24;5.93;;;4.33;;
75050;SDS011;63628;47.656;11.310;2024-01-07T00:54:51;5.33;;;3.80;;
75050;SDS011;63628;47.656;11.310;2024-01-07T00:57:18;5.47;;;3.80;;
75050;SDS011;63628;47.656;11.310;2024-01-07T00:59:44;6.03;;;4.57;;
75050;SDS011;63628;47.656;11.310;2024-01-07T01:02:11;7.00;;;4.60;;
75050;SDS011;63628;47.656;11.310;2024-01-07T01:04:38;6.80;;;4.53;;
75050;SDS011;63628;47.656;11.310;2024-01-07T01:07:05;6.90;;;4.17;;
75050;SDS011;63628;47.656;11.310;2024-01-07T01:09:35;7.97;;;4.47;;
75050;SDS011;63628;47.656;11.310;2024-01-07T01:12:02;5.23;;;3.90;;
75050;SDS011;63628;47.656;11.310;2024-01-07T01:14:29;5.90;;;4.03;;
75050;SDS011;63628;47.656;11.310;2024-01-07T01:16:55;6.23;;;4.30;;
75050;SDS011;63628;47.656;11.310;2024-01-07T01:19:23;5.10;;;3.93;;
75050;SDS011;63628;47.656;11.310;2024-01-07T01:21:50;5.80;;;3.83;;
75050;SDS011;63628;47.656;11.310;2024-01-07T01:24:16;4.43;;;3.43;;
75050;SDS011;63628;47.656;11.310;2024-01-07T01:26:45;5.27;;;3.47;;
75050;SDS011;63628;47.656;11.310;2024-01-07T01:29:11;5.20;;;3.47;;
75050;SDS011;63628;47.656;11.310;2024-01-07T01:31:38;4.37;;;3.20;;
75050;SDS011;63628;47.656;11.310;2024-01-07T01:34:05;4.67;;;3.50;;
75050;SDS011;63628;47.656;11.310;2024-01-07T01:36:32;4.77;;;2.90;;
75050;SDS011;63628;47.656;11.310;2024-01-07T01:38:58;6.00;;;3.37;;
75050;SDS011;63628;47.656;11.310;2024-01-07T01:41:25;5.13;;;3.50;;
75050;SDS011;63628;47.656;11.310;2024-01-07T01:43:55;4.70;;;3.60;;
75050;SDS011;63628;47.656;11.310;2024-01-07T01:46:23;5.23;;;4.00;;
75050;SDS011;63628;47.656;11.310;2024-01-07T01:48:50;4.33;;;3.53;;
75050;SDS011;63628;47.656;11.310;2024-01-07T01:51:17;4.50;;;3.33;;
75050;SDS011;63628;47.656;11.310;2024-01-07T01:53:44;5.03;;;2.80;;
75050;SDS011;63628;47.656;11.310;2024-01-07T01:56:11;4.87;;;3.20;;
75050;SDS011;63628;47.656;11.310;2024-01-07T01:58:38;3.57;;;2.70;;
75050;SDS011;63628;47.656;11.310;2024-01-07T02:01:06;4.37;;;3.43;;
75050;SDS011;63628;47.656;11.310;2024-01-07T02:03:34;4.40;;;3.00;;
75050;SDS011;63628;47.656;11.310;2024-01-07T02:06:00;5.03;;;3.10;;
75050;SDS011;63628;47.656;11.310;2024-01-07T02:08:27;3.90;;;2.83;;
75050;SDS011;63628;47.656;11.310;2024-01-07T02:10:55;3.90;;;2.97;;
75050;SDS011;63628;47.656;11.310;2024-01-07T02:13:22;3.13;;;2.70;;
75050;SDS011;63628;47.656;11.310;2024-01-07T02:15:48;4.20;;;3.00;;
75050;SDS011;63628;47.656;11.310;2024-01-07T02:18:16;3.40;;;2.63;;
75050;SDS011;63628;47.656;11.310;2024-01-07T02:20:43;3.30;;;2.53;;
75050;SDS011;63628;47.656;11.310;2024-01-07T02:23:10;3.20;;;2.57;;
75050;SDS011;63628;47.656;11.310;2024-01-07T02:25:38;3.93;;;2.80;;
75050;SDS011;63628;47.656;11.310;2024-01-07T02:28:05;4.13;;;2.90;;
75050;SDS011;63628;47.656;11.310;2024-01-07T02:30:32;4.43;;;2.80;;
75050;SDS011;63628;47.656;11.310;2024-01-07T02:33:00;3.80;;;2.70;;
75050;SDS011;63628;47.656;11.310;2024-01-07T02:35:28;3.40;;;2.55;;
75050;SDS011;63628;47.656;11.310;2024-01-07T02:37:56;3.50;;;2.30;;
75050;SDS011;63628;47.656;11.310;2024-01-07T02:40:23;3.57;;;2.67;;
75050;SDS011;63628;47.656;11.310;2024-01-07T02:42:51;3.23;;;2.70;;
75050;SDS011;63628;47.656;11.310;2024-01-07T02:45:18;2.83;;;2.10;;
75050;SDS011;63628;47.656;11.310;2024-01-07T02:47:45;3.23;;;2.33;;
75050;SDS011;63628;47.656;11.310;2024-01-07T02:50:12;2.97;;;2.37;;
75050;SDS011;63628;47.656;11.310;2024-01-07T02:52:38;2.43;;;2.20;;
75050;SDS011;63628;47.656;11.310;2024-01-07T02:55:06;3.43;;;2.23;;
75050;SDS011;63628;47.656;11.310;2024-01-07T02:57:34;2.83;;;2.20;;
75050;SDS011;63628;47.656;11.310;2024-01-07T03:00:02;3.70;;;2.10;;
75050;SDS011;63628;47.656;11.310;2024-01-07T03:02:31;2.80;;;1.93;;
75050;SDS011;63628;47.656;11.310;2024-01-07T03:04:57;3.00;;;2.53;;
75050;SDS011;63628;47.656;11.310;2024-01-07T03:07:24;3.17;;;2.00;;
75050;SDS011;63628;47.656;11.310;2024-01-07T03:09:51;3.03;;;2.10;;
75050;SDS011;63628;47.656;11.310;2024-01-07T03:12:18;3.83;;;2.27;;
75050;SDS011;63628;47.656;11.310;2024-01-07T03:14:44;3.37;;;2.00;;
75050;SDS011;63628;47.656;11.310;2024-01-07T03:17:12;3.70;;;2.47;;
75050;SDS011;63628;47.656;11.310;2024-01-07T03:19:41;3.27;;;2.10;;
75050;SDS011;63628;47.656;11.310;2024-01-07T03:22:08;3.10;;;2.10;;
75050;SDS011;63628;47.656;11.310;2024-01-07T03:24:34;2.53;;;2.00;;
75050;SDS011;63628;47.656;11.310;2024-01-07T03:27:01;2.53;;;2.00;;
75050;SDS011;63628;47.656;11.310;2024-01-07T03:29:28;2.53;;;1.93;;
75050;SDS011;63628;47.656;11.310;2024-01-07T03:31:54;3.03;;;1.97;;
75050;SDS011;63628;47.656;11.310;2024-01-07T03:34:22;3.03;;;1.77;;
75050;SDS011;63628;47.656;11.310;2024-01-07T03:36:49;3.07;;;2.00;;
75050;SDS011;63628;47.656;11.310;2024-01-07T03:39:16;2.47;;;1.77;;
75050;SDS011;63628;47.656;11.310;2024-01-07T03:41:43;2.13;;;1.60;;
75050;SDS011;63628;47.656;11.310;2024-01-07T03:44:09;2.10;;;1.60;;
75050;SDS011;63628;47.656;11.310;2024-01-07T03:46:36;2.97;;;1.90;;
75050;SDS011;63628;47.656;11.310;2024-01-07T03:49:03;2.37;;;1.80;;
75050;SDS011;63628;47.656;11.310;2024-01-07T03:51:31;3.23;;;2.07;;
75050;SDS011;63628;47.656;11.310;2024-01-07T03:53:57;1.80;;;1.70;;
75050;SDS011;63628;47.656;11.310;2024-01-07T03:56:24;2.47;;;1.60;;
75050;SDS011;63628;47.656;11.310;2024-01-07T03:58:51;1.67;;;1.27;;
75050;SDS011;63628;47.656;11.310;2024-01-07T04:01:17;2.73;;;2.00;;
75050;SDS011;63628;47.656;11.310;2024-01-07T04:03:45;0.60;;;0.50;;
75050;SDS011;63628;47.656;11.310;2024-01-07T04:06:12;1.67;;;1.20;;
75050;SDS011;63628;47.656;11.310;2024-01-07T04:08:40;2.33;;;1.53;;
75050;SDS011;63628;47.656;11.310;2024-01-07T04:11:06;2.00;;;1.53;;
75050;SDS011;63628;47.656;11.310;2024-01-07T04:13:33;2.20;;;1.70;;
75050;SDS011;63628;47.656;11.310;2024-01-07T04:16:00;1.90;;;1.43;;
75050;SDS011;63628;47.656;11.310;2024-01-07T04:18:27;1.67;;;1.40;;
75050;SDS011;63628;47.656;11.310;2024-01-07T04:20:53;1.77;;;1.53;;
75050;SDS011;63628;47.656;11.310;2024-01-07T04:23:20;1.67;;;1.40;;
75050;SDS011;63628;47.656;11.310;2024-01-07T04:25:48;1.60;;;1.30;;
75050;SDS011;63628;47.656;11.310;2024-01-07T04:28:15;2.10;;;1.37;;
75050;SDS011;63628;47.656;11.310;2024-01-07T04:30:41;2.20;;;1.50;;
75050;SDS011;63628;47.656;11.310;2024-01-07T04:33:08;1.90;;;1.40;;
75050;SDS011;63628;47.656;11.310;2024-01-07T04:35:35;1.13;;;1.03;;
75050;SDS011;63628;47.656;11.310;2024-01-07T04:38:02;1.40;;;1.30;;
75050;SDS011;63628;47.656;11.310;2024-01-07T04:40:29;2.13;;;1.70;;
75050;SDS011;63628;47.656;11.310;2024-01-07T04:42:57;1.40;;;1.30;;
75050;SDS011;63628;47.656;11.310;2024-01-07T04:45:24;1.47;;;1.20;;
75050;SDS011;63628;47.656;11.310;2024-01-07T04:47:51;1.67;;;1.20;;
75050;SDS011;63628;47.656;11.310;2024-01-07T04:50:18;1.77;;;1.30;;
75050;SDS011;63628;47.656;11.310;2024-01-07T04:52:46;1.67;;;1.40;;
75050;SDS011;63628;47.656;11.310;2024-01-07T04:55:13;2.00;;;1.30;;
75050;SDS011;63628;47.656;11.310;2024-01-07T04:57:40;1.50;;;1.20;;
75050;SDS011;63628;47.656;11.310;2024-01-07T05:00:08;1.90;;;1.40;;
75050;SDS011;63628;47.656;11.310;2024-01-07T05:02:36;2.47;;;1.90;;
75050;SDS011;63628;47.656;11.310;2024-01-07T05:05:04;1.50;;;1.03;;
75050;SDS011;63628;47.656;11.310;2024-01-07T05:07:30;1.33;;;1.00;;
75050;SDS011;63628;47.656;11.310;2024-01-07T05:09:57;1.73;;;1.30;;
75050;SDS011;63628;47.656;11.310;2024-01-07T05:12:24;2.07;;;1.07;;
75050;SDS011;63628;47.656;11.310;2024-01-07T05:14:51;1.87;;;1.27;;
75050;SDS011;63628;47.656;11.310;2024-01-07T05:17:20;1.60;;;1.10;;
75050;SDS011;63628;47.656;11.310;2024-01-07T05:19:46;1.27;;;1.03;;
75050;SDS011;63628;47.656;11.310;2024-01-07T05:22:13;1.43;;;1.00;;
75050;SDS011;63628;47.656;11.310;2024-01-07T05:24:40;1.87;;;1.27;;
75050;SDS011;63628;47.656;11.310;2024-01-07T05:27:07;2.40;;;1.53;;
75050;SDS011;63628;47.656;11.310;2024-01-07T05:29:33;1.57;;;1.30;;
75050;SDS011;63628;47.656;11.310;2024-01-07T05:32:00;1.73;;;1.10;;
75050;SDS011;63628;47.656;11.310;2024-01-07T05:34:29;1.23;;;1.03;;
75050;SDS011;63628;47.656;11.310;2024-01-07T05:36:56;2.17;;;1.20;;
75050;SDS011;63628;47.656;11.310;2024-01-07T05:39:23;1.63;;;1.30;;
75050;SDS011;63628;47.656;11.310;2024-01-07T05:41:49;1.70;;;1.27;;
75050;SDS011;63628;47.656;11.310;2024-01-07T05:44:16;2.00;;;1.30;;
75050;SDS011;63628;47.656;11.310;2024-01-07T05:46:43;1.47;;;1.37;;
75050;SDS011;63628;47.656;11.310;2024-01-07T05:49:09;1.93;;;1.27;;
75050;SDS011;63628;47.656;11.310;2024-01-07T05:51:39;1.03;;;0.93;;
75050;SDS011;63628;47.656;11.310;2024-01-07T05:54:06;1.70;;;0.73;;
75050;SDS011;63628;47.656;11.310;2024-01-07T05:56:37;1.27;;;1.03;;
75050;SDS011;63628;47.656;11.310;2024-01-07T05:59:05;1.50;;;1.23;;
75050;SDS011;63628;47.656;11.310;2024-01-07T06:01:32;1.23;;;1.13;;
75050;SDS011;63628;47.656;11.310;2024-01-07T06:03:59;0.83;;;0.83;;
75050;SDS011;63628;47.656;11.310;2024-01-07T06:06:26;1.73;;;1.00;;
75050;SDS011;63628;47.656;11.310;2024-01-07T06:08:54;1.40;;;0.90;;
75050;SDS011;63628;47.656;11.310;2024-01-07T06:11:21;1.77;;;1.10;;
75050;SDS011;63628;47.656;11.310;2024-01-07T06:13:47;0.83;;;0.83;;
75050;SDS011;63628;47.656;11.310;2024-01-07T06:16:14;1.43;;;1.00;;
75050;SDS011;63628;47.656;11.310;2024-01-07T06:18:41;1.30;;;1.00;;
75050;SDS011;63628;47.656;11.310;2024-01-07T06:21:08;1.20;;;1.03;;
75050;SDS011;63628;47.656;11.310;2024-01-07T06:23:34;1.10;;;1.00;;
75050;SDS011;63628;47.656;11.310;2024-01-07T06:26:04;0.90;;;0.80;;
75050;SDS011;63628;47.656;11.310;2024-01-07T06:28:31;1.15;;;1.00;;
75050;SDS011;63628;47.656;11.310;2024-01-07T06:30:58;0.93;;;0.90;;
75050;SDS011;63628;47.656;11.310;2024-01-07T06:33:25;1.33;;;1.07;;
75050;SDS011;63628;47.656;11.310;2024-01-07T06:35:52;1.20;;;0.90;;
75050;SDS011;63628;47.656;11.310;2024-01-07T06:38:19;0.83;;;0.80;;
75050;SDS011;63628;47.656;11.310;2024-01-07T06:40:46;1.07;;;0.90;;
75050;SDS011;63628;47.656;11.310;2024-01-07T06:43:14;0.80;;;0.80;;
75050;SDS011;63628;47.656;11.310;2024-01-07T06:45:41;0.87;;;0.80;;
75050;SDS011;63628;47.656;11.310;2024-01-07T06:48:08;1.53;;;1.10;;
75050;SDS011;63628;47.656;11.310;2024-01-07T06:50:35;1.17;;;1.07;;
75050;SDS011;63628;47.656;11.310;2024-01-07T06:53:02;0.70;;;0.70;;
75050;SDS011;63628;47.656;11.310;2024-01-07T06:55:29;1.33;;;0.80;;
75050;SDS011;63628;47.656;11.310;2024-01-07T06:57:55;0.80;;;0.80;;
75050;SDS011;63628;47.656;11.310;2024-01-07T07:00:23;1.07;;;0.90;;
75050;SDS011;63628;47.656;11.310;2024-01-07T07:02:50;1.53;;;1.00;;
75050;SDS011;63628;47.656;11.310;2024-01-07T07:05:17;1.23;;;1.13;;
75050;SDS011;63628;47.656;11.310;2024-01-07T07:07:44;0.93;;;0.90;;
75050;SDS011;63628;47.656;11.310;2024-01-07T07:10:11;1.07;;;0.90;;
75050;SDS011;63628;47.656;11.310;2024-01-07T07:12:38;1.07;;;0.97;;
75050;SDS011;63628;47.656;11.310;2024-01-07T07:15:05;0.87;;;0.80;;
75050;SDS011;63628;47.656;11.310;2024-01-07T07:17:34;0.87;;;0.70;;
75050;SDS011;63628;47.656;11.310;2024-01-07T07:20:00;0.70;;;0.70;;
75050;SDS011;63628;47.656;11.310;2024-01-07T07:22:27;1.07;;;0.80;;
75050;SDS011;63628;47.656;11.310;2024-01-07T07:24:54;0.93;;;0.70;;
75050;SDS011;63628;47.656;11.310;2024-01-07T07:27:27;1.07;;;0.90;;
75050;SDS011;63628;47.656;11.310;2024-01-07T07:29:53;1.13;;;0.73;;
75050;SDS011;63628;47.656;11.310;2024-01-07T07:32:20;1.23;;;0.90;;
75050;SDS011;63628;47.656;11.310;2024-01-07T07:34:48;0.80;;;0.67;;
75050;SDS011;63628;47.656;11.310;2024-01-07T07:37:14;0.93;;;0.80;;
75050;SDS011;63628;47.656;11.310;2024-01-07T07:39:44;1.05;;;0.95;;
75050;SDS011;63628;47.656;11.310;2024-01-07T07:42:11;0.80;;;0.80;;
75050;SDS011;63628;47.656;11.310;2024-01-07T07:44:37;0.60;;;0.60;;
75050;SDS011;63628;47.656;11.310;2024-01-07T07:47:05;0.80;;;0.80;;
75050;SDS011;63628;47.656;11.310;2024-01-07T07:49:32;0.63;;;0.63;;
75050;SDS011;63628;47.656;11.310;2024-01-07T07:52:00;7.43;;;6.00;;
75050;SDS011;63628;47.656;11.310;2024-01-07T07:54:26;1.70;;;1.10;;
75050;SDS011;63628;47.656;11.310;2024-01-07T07:56:53;2.00;;;1.33;;
75050;SDS011;63628;47.656;11.310;2024-01-07T07:59:20;1.13;;;0.90;;
75050;SDS011;63628;47.656;11.310;2024-01-07T08:01:46;1.60;;;1.20;;
75050;SDS011;63628;47.656;11.310;2024-01-07T08:04:13;1.43;;;1.13;;
75050;SDS011;63628;47.656;11.310;2024-01-07T08:06:40;1.43;;;1.00;;
75050;SDS011;63628;47.656;11.310;2024-01-07T08:09:10;3.23;;;1.60;;
75050;SDS011;63628;47.656;11.310;2024-01-07T08:11:37;2.33;;;1.27;;
75050;SDS011;63628;47.656;11.310;2024-01-07T08:14:05;2.85;;;1.67;;
75050;SDS011;63628;47.656;11.310;2024-01-07T08:16:33;4.20;;;2.20;;
75050;SDS011;63628;47.656;11.310;2024-01-07T08:18:59;3.23;;;2.30;;
75050;SDS011;63628;47.656;11.310;2024-01-07T08:21:26;4.67;;;2.37;;
75050;SDS011;63628;47.656;11.310;2024-01-07T08:23:53;4.77;;;2.70;;
75050;SDS011;63628;47.656;11.310;2024-01-07T08:26:22;5.50;;;2.60;;
75050;SDS011;63628;47.656;11.310;2024-01-07T08:28:49;4.20;;;3.00;;
75050;SDS011;63628;47.656;11.310;2024-01-07T08:31:16;4.17;;;2.60;;
75050;SDS011;63628;47.656;11.310;2024-01-07T08:33:43;5.70;;;3.30;;
75050;SDS011;63628;47.656;11.310;2024-01-07T08:36:10;4.83;;;2.40;;
75050;SDS011;63628;47.656;11.310;2024-01-07T08:38:36;5.23;;;2.83;;
75050;SDS011;63628;47.656;11.310;2024-01-07T08:41:03;5.23;;;2.43;;
75050;SDS011;63628;47.656;11.310;2024-01-07T08:43:32;4.57;;;2.83;;
75050;SDS011;63628;47.656;11.310;2024-01-07T08:45:58;5.03;;;3.00;;
75050;SDS011;63628;47.656;11.310;2024-01-07T08:48:25;5.03;;;3.27;;
75050;SDS011;63628;47.656;11.310;2024-01-07T08:50:52;6.77;;;3.60;;
75050;SDS011;63628;47.656;11.310;2024-01-07T08:53:19;5.20;;;3.03;;
75050;SDS011;63628;47.656;11.310;2024-01-07T08:55:48;5.18;;;3.22;;
75050;SDS011;63628;47.656;11.310;2024-01-07T08:58:15;4.63;;;2.80;;
75050;SDS011;63628;47.656;11.310;2024-01-07T09:00:44;4.27;;;2.97;;
75050;SDS011;63628;47.656;11.310;2024-01-07T09:03:11;4.20;;;2.73;;
75050;SDS011;63628;47.656;11.310;2024-01-07T09:05:38;9.07;;;4.40;;
75050;SDS011;63628;47.656;11.310;2024-01-07T09:08:05;4.90;;;2.97;;
75050;SDS011;63628;47.656;11.310;2024-01-07T09:10:33;3.93;;;2.70;;
75050;SDS011;63628;47.656;11.310;2024-01-07T09:12:59;5.33;;;2.90;;
75050;SDS011;63628;47.656;11.310;2024-01-07T09:15:26;4.90;;;2.93;;
75050;SDS011;63628;47.656;11.310;2024-01-07T09:17:54;6.77;;;3.30;;
75050;SDS011;63628;47.656;11.310;2024-01-07T09:20:21;5.27;;;2.97;;
75050;SDS011;63628;47.656;11.310;2024-01-07T09:22:48;4.53;;;2.83;;
75050;SDS011;63628;47.656;11.310;2024-01-07T09:25:15;4.47;;;2.83;;
75050;SDS011;63628;47.656;11.310;2024-01-07T09:27:42;4.47;;;3.17;;
75050;SDS011;63628;47.656;11.310;2024-01-07T09:30:10;5.50;;;3.07;;
75050;SDS011;63628;47.656;11.310;2024-01-07T09:32:40;5.13;;;3.67;;
75050;SDS011;63628;47.656;11.310;2024-01-07T09:35:09;3.83;;;2.77;;
75050;SDS011;63628;47.656;11.310;2024-01-07T09:37:36;3.10;;;2.40;;
75050;SDS011;63628;47.656;11.310;2024-01-07T09:40:03;4.37;;;3.00;;
75050;SDS011;63628;47.656;11.310;2024-01-07T09:42:33;3.73;;;2.60;;
75050;SDS011;63628;47.656;11.310;2024-01-07T09:45:01;2.03;;;1.73;;
75050;SDS011;63628;47.656;11.310;2024-01-07T09:47:31;3.20;;;2.33;;
75050;SDS011;63628;47.656;11.310;2024-01-07T09:49:58;4.00;;;2.30;;
75050;SDS011;63628;47.656;11.310;2024-01-07T09:52:27;4.33;;;2.90;;
75050;SDS011;63628;47.656;11.310;2024-01-07T09:54:56;3.42;;;2.47;;
75050;SDS011;63628;47.656;11.310;2024-01-07T09:57:28;3.53;;;2.50;;
75050;SDS011;63628;47.656;11.310;2024-01-07T09:59:55;4.53;;;2.90;;
75050;SDS011;63628;47.656;11.310;2024-01-07T10:02:22;4.40;;;2.27;;
75050;SDS011;63628;47.656;11.310;2024-01-07T10:04:49;3.30;;;2.43;;
75050;SDS011;63628;47.656;11.310;2024-01-07T10:07:16;3.43;;;2.40;;
75050;SDS011;63628;47.656;11.310;2024-01-07T10:09:45;3.03;;;2.20;;
75050;SDS011;63628;47.656;11.310;2024-01-07T10:12:12;4.37;;;2.40;;
75050;SDS011;63628;47.656;11.310;2024-01-07T10:14:39;3.27;;;2.13;;
75050;SDS011;63628;47.656;11.310;2024-01-07T10:17:16;4.30;;;2.60;;
75050;SDS011;63628;47.656;11.310;2024-01-07T10:19:44;3.13;;;2.40;;
75050;SDS011;63628;47.656;11.310;2024-01-07T10:22:12;3.40;;;2.47;;
75050;SDS011;63628;47.656;11.310;2024-01-07T10:24:40;3.67;;;2.67;;
75050;SDS011;63628;47.656;11.310;2024-01-07T10:28:29;4.40;;;2.17;;
75050;SDS011;63628;47.656;11.310;2024-01-07T10:30:58;2.83;;;1.80;;
75050;SDS011;63628;47.656;11.310;2024-01-07T10:33:24;2.80;;;2.00;;
75050;SDS011;63628;47.656;11.310;2024-01-07T10:35:52;2.37;;;1.83;;
75050;SDS011;63628;47.656;11.310;2024-01-07T10:38:22;2.97;;;1.70;;
75050;SDS011;63628;47.656;11.310;2024-01-07T10:40:50;2.93;;;2.00;;
75050;SDS011;63628;47.656;11.310;2024-01-07T10:43:19;3.73;;;2.13;;
75050;SDS011;63628;47.656;11.310;2024-01-07T10:45:48;3.80;;;2.17;;
75050;SDS011;63628;47.656;11.310;2024-01-07T10:48:17;3.53;;;2.27;;
75050;SDS011;63628;47.656;11.310;2024-01-07T10:50:45;3.03;;;2.00;;
75050;SDS011;63628;47.656;11.310;2024-01-07T10:53:18;3.33;;;1.90;;
75050;SDS011;63628;47.656;11.310;2024-01-07T10:55:48;4.50;;;2.10;;
75050;SDS011;63628;47.656;11.310;2024-01-07T10:58:23;3.13;;;1.97;;
75050;SDS011;63628;47.656;11.310;2024-01-07T11:00:51;2.83;;;1.90;;
75050;SDS011;63628;47.656;11.310;2024-01-07T11:03:24;4.73;;;2.37;;
75050;SDS011;63628;47.656;11.310;2024-01-07T11:05:58;2.83;;;1.73;;
75050;SDS011;63628;47.656;11.310;2024-01-07T11:08:31;3.47;;;2.40;;
75050;SDS011;63628;47.656;11.310;2024-01-07T11:11:03;2.77;;;2.20;;
75050;SDS011;63628;47.656;11.310;2024-01-07T11:13:34;3.53;;;2.13;;
75050;SDS011;63628;47.656;11.310;2024-01-07T11:16:03;3.80;;;2.00;;
75050;SDS011;63628;47.656;11.310;2024-01-07T11:18:31;3.72;;;2.08;;
75050;SDS011;63628;47.656;11.310;2024-01-07T11:21:00;2.33;;;1.55;;
75050;SDS011;63628;47.656;11.310;2024-01-07T11:23:31;1.63;;;1.50;;
75050;SDS011;63628;47.656;11.310;2024-01-07T11:26:06;2.07;;;1.57;;
75050;SDS011;63628;47.656;11.310;2024-01-07T11:28:42;2.55;;;1.80;;
75050;SDS011;63628;47.656;11.310;2024-01-07T11:31:14;2.57;;;1.73;;
75050;SDS011;63628;47.656;11.310;2024-01-07T11:33:42;3.50;;;2.10;;
75050;SDS011;63628;47.656;11.310;2024-01-07T11:36:11;7.83;;;5.80;;
75050;SDS011;63628;47.656;11.310;2024-01-07T11:38:41;7.37;;;5.87;;
75050;SDS011;63628;47.656;11.310;2024-01-07T11:41:08;9.20;;;6.82;;
75050;SDS011;63628;47.656;11.310;2024-01-07T11:43:37;6.00;;;5.40;;
75050;SDS011;63628;47.656;11.310;2024-01-07T11:46:03;4.10;;;3.20;;
75050;SDS011;63628;47.656;11.310;2024-01-07T11:48:32;3.63;;;2.90;;
75050;SDS011;63628;47.656;11.310;2024-01-07T11:50:59;3.63;;;2.63;;
75050;SDS011;63628;47.656;11.310;2024-01-07T11:53:25;2.80;;;2.40;;
75050;SDS011;63628;47.656;11.310;2024-01-07T11:55:52;4.47;;;3.00;;
75050;SDS011;63628;47.656;11.310;2024-01-07T11:58:19;3.57;;;2.50;;
75050;SDS011;63628;47.656;11.310;2024-01-07T12:00:46;3.17;;;2.57;;
75050;SDS011;63628;47.656;11.310;2024-01-07T12:03:13;3.50;;;2.70;;
75050;SDS011;63628;47.656;11.310;2024-01-07T12:05:41;3.57;;;2.77;;
75050;SDS011;63628;47.656;11.310;2024-01-07T12:08:10;2.93;;;2.37;;
75050;SDS011;63628;47.656;11.310;2024-01-07T12:10:37;3.90;;;2.80;;
75050;SDS011;63628;47.656;11.310;2024-01-07T12:13:04;4.13;;;3.07;;
75050;SDS011;63628;47.656;11.310;2024-01-07T12:15:31;3.53;;;2.87;;
75050;SDS011;63628;47.656;11.310;2024-01-07T12:17:59;4.47;;;3.20;;
75050;SDS011;63628;47.656;11.310;2024-01-07T12:20:28;4.55;;;2.47;;
75050;SDS011;63628;47.656;11.310;2024-01-07T12:22:57;4.10;;;3.13;;
75050;SDS011;63628;47.656;11.310;2024-01-07T12:25:24;4.40;;;3.20;;
75050;SDS011;63628;47.656;11.310;2024-01-07T12:27:50;3.67;;;2.73;;
75050;SDS011;63628;47.656;11.310;2024-01-07T12:30:19;4.17;;;3.20;;
75050;SDS011;63628;47.656;11.310;2024-01-07T12:32:46;4.27;;;3.30;;
75050;SDS011;63628;47.656;11.310;2024-01-07T12:35:13;4.20;;;2.93;;
75050;SDS011;63628;47.656;11.310;2024-01-07T12:37:41;3.93;;;2.73;;
75050;SDS011;63628;47.656;11.310;2024-01-07T12:40:10;6.83;;;4.53;;
75050;SDS011;63628;47.656;11.310;2024-01-07T12:42:38;9.95;;;6.13;;
75050;SDS011;63628;47.656;11.310;2024-01-07T12:45:11;6.00;;;3.93;;
75050;SDS011;63628;47.656;11.310;2024-01-07T12:47:41;5.20;;;3.60;;
75050;SDS011;63628;47.656;11.310;2024-01-07T12:50:08;4.50;;;3.43;;
75050;SDS011;63628;47.656;11.310;2024-01-07T12:52:39;7.07;;;4.90;;
75050;SDS011;63628;47.656;11.310;2024-01-07T12:55:06;4.83;;;3.50;;
75050;SDS011;63628;47.656;11.310;2024-01-07T12:57:35;6.63;;;4.30;;
75050;SDS011;63628;47.656;11.310;2024-01-07T13:00:03;4.97;;;3.40;;
75050;SDS011;63628;47.656;11.310;2024-01-07T13:02:33;4.70;;;3.13;;
75050;SDS011;63628;47.656;11.310;2024-01-07T13:05:01;4.67;;;3.20;;
75050;SDS011;63628;47.656;11.310;2024-01-07T13:07:29;3.27;;;2.80;;
75050;SDS011;63628;47.656;11.310;2024-01-07T13:09:56;3.67;;;2.80;;
75050;SDS011;63628;47.656;11.310;2024-01-07T13:12:23;18.00;;;8.00;;
75050;SDS011;63628;47.656;11.310;2024-01-07T13:15:02;9.07;;;4.83;;
75050;SDS011;63628;47.656;11.310;2024-01-07T13:17:30;12.20;;;5.87;;
75050;SDS011;63628;47.656;11.310;2024-01-07T13:19:59;15.13;;;6.35;;
75050;SDS011;63628;47.656;11.310;2024-01-07T13:22:26;13.93;;;7.13;;
75050;SDS011;63628;47.656;11.310;2024-01-07T13:24:53;16.33;;;7.53;;
75050;SDS011;63628;47.656;11.310;2024-01-07T13:27:23;18.00;;;7.07;;
75050;SDS011;63628;47.656;11.310;2024-01-07T13:29:50;15.53;;;6.23;;
75050;SDS011;63628;47.656;11.310;2024-01-07T13:32:18;23.57;;;9.90;;
75050;SDS011;63628;47.656;11.310;2024-01-07T13:34:45;14.37;;;6.13;;
75050;SDS011;63628;47.656;11.310;2024-01-07T13:37:12;13.40;;;6.90;;
75050;SDS011;63628;47.656;11.310;2024-01-07T13:39:39;10.10;;;5.47;;
75050;SDS011;63628;47.656;11.310;2024-01-07T13:42:06;7.20;;;4.30;;
75050;SDS011;63628;47.656;11.310;2024-01-07T13:44:32;5.87;;;3.90;;
75050;SDS011;63628;47.656;11.310;2024-01-07T13:47:00;8.13;;;4.80;;
75050;SDS011;63628;47.656;11.310;2024-01-07T13:49:29;7.13;;;4.17;;
75050;SDS011;63628;47.656;11.310;2024-01-07T13:51:56;7.20;;;4.80;;
75050;SDS011;63628;47.656;11.310;2024-01-07T13:54:23;18.20;;;11.03;;
75050;SDS011;63628;47.656;11.310;2024-01-07T13:56:49;15.93;;;8.87;;
75050;SDS011;63628;47.656;11.310;2024-01-07T13:59:17;13.07;;;7.83;;
75050;SDS011;63628;47.656;11.310;2024-01-07T14:01:44;8.53;;;5.33;;
75050;SDS011;63628;47.656;11.310;2024-01-07T14:04:11;4.80;;;3.27;;
75050;SDS011;63628;47.656;11.310;2024-01-07T14:06:41;6.77;;;3.47;;
75050;SDS011;63628;47.656;11.310;2024-01-07T14:09:07;4.43;;;3.00;;
75050;SDS011;63628;47.656;11.310;2024-01-07T14:11:35;5.20;;;2.97;;
75050;SDS011;63628;47.656;11.310;2024-01-07T14:14:01;3.67;;;2.63;;
75050;SDS011;63628;47.656;11.310;2024-01-07T14:16:28;4.23;;;2.97;;
75050;SDS011;63628;47.656;11.310;2024-01-07T14:18:55;4.73;;;2.90;;
75050;SDS011;63628;47.656;11.310;2024-01-07T14:21:22;4.50;;;3.23;;
75050;SDS011;63628;47.656;11.310;2024-01-07T14:23:50;3.43;;;2.60;;
75050;SDS011;63628;47.656;11.310;2024-01-07T14:26:16;5.13;;;2.77;;
75050;SDS011;63628;47.656;11.310;2024-01-07T14:28:43;4.27;;;3.20;;
75050;SDS011;63628;47.656;11.310;2024-01-07T14:31:09;3.90;;;2.63;;
75050;SDS011;63628;47.656;11.310;2024-01-07T14:33:36;3.83;;;3.07;;
75050;SDS011;63628;47.656;11.310;2024-01-07T14:36:04;3.50;;;2.70;;